Terminal Aerodrome Forecast
Issued by NWS

Home | Current Version | Previous Version | Text Only | Print | Product List | Glossary On
Versions: 1 2 3 4 5 6 7 8 9 10 11 12 13 14 15 16 17 18 19
518
FTUS41 KAKQ 122239 AAC
TAFPHF
TAF AMD
KPHF 122239Z 1223/1318 VRB03KT P6SM OVC015
     FM130100 VRB03KT P6SM OVC045
     FM130400 25005KT P6SM BKN050
     FM130900 30013G21KT P6SM SKC
     FM131300 32017G30KT P6SM SKC=

USA.gov is the U.S. government's official web portal to all federal, state and local government web resources and services.